Time;durP1;ratioP1;P1;durP2;ratioP2;P2;SDS_P1;SDS_P2;PMS_P1;PMS_P2;Temp;Humidity;BMP_temperature;BMP_pressure;BME280_temperature;BME280_humidity;BME280_pressure;Samples;Min_cycle;Max_cycle;Signal;HPM_P1;HPM_P2
2023/06/01 00:00:25;;;;;;;16.13;7.85;;;;;;;12.30;100.00;102141.81;5010330;28;20343;-96
2023/06/01 00:02:50;;;;;;;17.85;8.00;;;;;;;12.34;100.00;102142.97;4981705;28;20043;-96
2023/06/01 00:05:19;;;;;;;15.50;7.97;;;;;;;12.27;100.00;102132.38;4987575;28;20398;-96
2023/06/01 00:07:49;;;;;;;17.52;8.27;;;;;;;12.26;100.00;102155.72;4990304;28;20023;-96
2023/06/01 00:10:15;;;;;;;17.23;8.80;;;;;;;12.15;100.00;102140.44;5010361;28;20034;-96
2023/06/01 00:12:40;;;;;;;15.83;7.67;;;;;;;12.39;100.00;102164.59;4989935;28;20291;-96
2023/06/01 00:15:09;;;;;;;16.63;8.60;;;;;;;12.22;100.00;102167.19;4972668;28;20062;-96
2023/06/01 00:17:35;;;;;;;16.23;8.60;;;;;;;12.12;100.00;102157.03;4985020;28;20047;-95
2023/06/01 00:20:07;;;;;;;19.55;9.05;;;;;;;11.92;100.00;102135.91;4989025;28;20061;-96
2023/06/01 00:22:38;;;;;;;17.35;8.80;;;;;;;11.90;100.00;102128.06;4964728;28;20069;-96
2023/06/01 00:25:20;;;;;;;15.75;8.43;;;;;;;12.03;100.00;102158.47;4970064;28;20034;-96
2023/06/01 00:28:04;;;;;;;16.67;8.30;;;;;;;11.98;100.00;102153.75;4973603;28;20093;-96
2023/06/01 00:30:32;;;;;;;15.45;8.95;;;;;;;11.71;100.00;102121.16;4975951;28;20316;-96
2023/06/01 00:33:00;;;;;;;14.80;8.73;;;;;;;11.73;100.00;102140.56;4971715;28;20034;-96
2023/06/01 00:35:25;;;;;;;16.77;9.45;;;;;;;11.60;100.00;102138.91;4968012;28;20033;-96
2023/06/01 00:37:51;;;;;;;13.33;8.23;;;;;;;11.54;100.00;102131.81;4989390;28;20019;-96
2023/06/01 00:40:34;;;;;;;15.80;8.85;;;;;;;11.69;100.00;102161.69;5000651;28;20203;-96
2023/06/01 00:43:04;;;;;;;16.20;9.02;;;;;;;11.60;100.00;102147.78;4986680;28;20022;-96
2023/06/01 00:45:39;;;;;;;19.58;9.30;;;;;;;11.59;100.00;102156.09;4979167;28;20023;-96
2023/06/01 00:48:11;;;;;;;16.50;8.98;;;;;;;11.42;100.00;102137.16;4993637;28;20483;-96
2023/06/01 00:53:44;;;;;;;15.65;9.38;;;;;;;11.15;100.00;102132.19;5001507;28;20090;-96
2023/06/01 00:56:17;;;;;;;17.92;9.68;;;;;;;11.14;100.00;102142.13;4984227;28;20022;-96
2023/06/01 00:59:03;;;;;;;19.03;8.93;;;;;;;11.15;100.00;102130.34;4952065;28;20090;-96
2023/06/01 01:01:52;;;;;;;18.40;8.90;;;;;;;11.16;100.00;102134.66;4977514;28;20298;-96
2023/06/01 01:04:29;;;;;;;18.13;8.98;;;;;;;11.09;100.00;102141.16;5001555;28;20151;-96
2023/06/01 01:07:01;;;;;;;22.63;10.18;;;;;;;11.12;100.00;102168.34;4986165;28;20026;-96
2023/06/01 01:13:48;;;;;;;19.73;9.60;;;;;;;10.99;100.00;102169.34;5012719;28;20073;-96
2023/06/01 01:16:57;;;;;;;16.27;9.40;;;;;;;10.86;100.00;102169.53;4996862;28;20029;-96
2023/06/01 01:19:41;;;;;;;18.23;9.35;;;;;;;10.82;100.00;102176.38;4975593;28;20038;-94
2023/06/01 01:22:24;;;;;;;18.02;9.60;;;;;;;10.78;100.00;102164.47;4976622;28;20050;-93
2023/06/01 01:25:20;;;;;;;15.48;9.43;;;;;;;10.73;100.00;102170.53;4977298;28;20034;-94
2023/06/01 01:28:15;;;;;;;17.93;9.80;;;;;;;10.67;100.00;102164.19;4975670;28;20023;-93
2023/06/01 01:30:42;;;;;;;22.67;10.00;;;;;;;10.57;100.00;102164.72;4958205;28;20282;-93
2023/06/01 01:33:08;;;;;;;20.70;10.35;;;;;;;10.58;100.00;102171.72;4980843;28;20057;-93
2023/06/01 01:35:35;;;;;;;20.15;10.98;;;;;;;10.51;100.00;102167.50;4984506;28;20059;-94
2023/06/01 01:38:01;;;;;;;19.20;10.68;;;;;;;10.39;100.00;102175.47;4975642;28;20034;-92
2023/06/01 01:45:36;;;;;;;19.55;11.82;;;;;;;10.28;100.00;102174.31;5012387;28;20645;-96
2023/06/01 01:48:11;;;;;;;20.77;11.07;;;;;;;10.06;100.00;102158.66;5013447;28;20081;-96
2023/06/01 01:50:43;;;;;;;22.75;11.00;;;;;;;9.94;100.00;102152.41;5014774;28;20042;-96
2023/06/01 01:53:09;;;;;;;19.43;11.03;;;;;;;10.01;100.00;102163.88;4985000;28;20011;-96
2023/06/01 01:55:36;;;;;;;22.90;10.90;;;;;;;9.87;100.00;102148.97;5086513;23;20298;-97
2023/06/01 01:58:04;;;;;;;25.52;12.60;;;;;;;9.91;100.00;102163.56;4990741;28;20030;-96
2023/06/01 02:00:31;;;;;;;24.40;11.75;;;;;;;9.79;100.00;102142.88;5001542;28;20041;-96
2023/06/01 02:02:57;;;;;;;21.95;11.55;;;;;;;9.76;100.00;102156.69;4977470;28;20012;-96
2023/06/01 02:05:23;;;;;;;20.23;11.30;;;;;;;9.79;100.00;102169.63;4975489;29;20105;-96
2023/06/01 02:07:51;;;;;;;25.02;13.27;;;;;;;9.66;100.00;102167.09;4979637;28;20015;-96
2023/06/01 02:16:38;;;;;;;22.00;12.23;;;;;;;9.67;100.00;102182.09;5087994;23;20065;-96
2023/06/01 02:19:11;;;;;;;29.60;14.00;;;;;;;9.60;100.00;102179.44;5431083;23;20054;-95
2023/06/01 02:21:36;;;;;;;27.55;13.00;;;;;;;9.55;100.00;102173.97;5017894;28;20033;-96
2023/06/01 02:24:38;;;;;;;23.95;12.93;;;;;;;9.50;100.00;102179.94;5017396;28;20026;-96
2023/06/01 02:47:53;;;;;;;20.58;11.57;;;;;;;9.65;100.00;102146.72;5772410;23;20051;-96
2023/06/01 02:50:19;;;;;;;19.17;11.80;;;;;;;9.70;100.00;102150.34;5008857;28;20038;-96
2023/06/01 02:52:44;;;;;;;20.03;10.93;;;;;;;9.75;100.00;102144.34;5011164;28;20026;-96
2023/06/01 02:55:09;;;;;;;20.50;11.40;;;;;;;9.68;100.00;102155.09;4995137;28;20030;-95
2023/06/01 02:57:35;;;;;;;24.27;10.30;;;;;;;9.84;100.00;102166.28;4982098;28;20014;-96
2023/06/01 03:00:15;;;;;;;21.57;9.77;;;;;;;9.91;100.00;102176.94;4996244;28;20023;-96
2023/06/01 03:02:42;;;;;;;18.53;9.90;;;;;;;9.78;100.00;102162.66;4981681;28;20309;-95
2023/06/01 03:05:08;;;;;;;17.40;9.25;;;;;;;9.77;100.00;102171.72;4998551;28;20027;-96
2023/06/01 03:07:34;;;;;;;22.17;10.95;;;;;;;9.91;100.00;102183.13;4996437;28;20031;-96
2023/06/01 03:09:59;;;;;;;20.92;9.45;;;;;;;9.81;100.00;102172.91;4993701;28;20038;-96
2023/06/01 03:12:28;;;;;;;17.80;9.57;;;;;;;9.86;100.00;102180.28;4994547;28;20034;-96
2023/06/01 03:14:53;;;;;;;19.25;9.60;;;;;;;9.84;100.00;102171.66;4962093;28;20019;-96
2023/06/01 03:17:19;;;;;;;16.27;9.27;;;;;;;9.84;100.00;102177.00;4979430;28;20061;-95
2023/06/01 03:19:44;;;;;;;20.23;9.10;;;;;;;9.81;100.00;102172.91;4982277;28;20022;-96
2023/06/01 03:22:10;;;;;;;16.97;8.87;;;;;;;9.83;100.00;102186.91;4998853;28;20023;-96
2023/06/01 03:24:36;;;;;;;18.38;9.35;;;;;;;9.64;100.00;102161.13;4985461;28;20018;-94
2023/06/01 03:27:02;;;;;;;20.50;8.67;;;;;;;9.70;100.00;102166.41;4976644;28;20430;-90
2023/06/01 03:29:28;;;;;;;14.75;8.75;;;;;;;9.76;100.00;102182.66;4987865;28;20019;-89
2023/06/01 03:31:53;;;;;;;20.17;8.17;;;;;;;9.78;100.00;102180.53;4991841;28;20039;-89
2023/06/01 03:34:19;;;;;;;15.45;8.55;;;;;;;9.78;100.00;102173.34;4983268;28;20085;-89
2023/06/01 03:36:47;;;;;;;13.60;8.30;;;;;;;9.85;100.00;102176.81;4972612;29;20034;-89
2023/06/01 03:39:16;;;;;;;19.07;8.20;;;;;;;9.90;100.00;102170.78;4985415;28;20349;-88
2023/06/01 03:41:43;;;;;;;17.70;8.20;;;;;;;9.98;100.00;102173.16;4993938;28;20034;-89
2023/06/01 03:44:09;;;;;;;15.73;7.85;;;;;;;9.99;100.00;102172.13;4979944;28;20032;-90
2023/06/01 03:46:34;;;;;;;18.27;7.38;;;;;;;10.11;100.00;102171.41;4971697;29;20034;-89
2023/06/01 03:49:00;;;;;;;16.70;8.50;;;;;;;10.07;100.00;102181.72;4975486;28;20508;-89
2023/06/01 03:51:25;;;;;;;14.50;8.20;;;;;;;10.10;100.00;102180.47;4988042;28;20062;-88
2023/06/01 03:53:51;;;;;;;17.77;8.07;;;;;;;10.03;100.00;102180.56;4991703;28;20026;-89
2023/06/01 03:56:16;;;;;;;16.03;7.93;;;;;;;10.06;100.00;102190.00;4982009;28;20461;-89
2023/06/01 03:58:42;;;;;;;11.35;7.43;;;;;;;9.96;100.00;102195.84;4974446;28;20022;-89
2023/06/01 04:01:07;;;;;;;12.33;7.63;;;;;;;9.94;100.00;102192.56;4975981;28;20391;-89
2023/06/01 04:03:33;;;;;;;13.50;7.40;;;;;;;9.99;100.00;102190.06;4972313;28;20031;-88
2023/06/01 04:05:59;;;;;;;13.63;7.60;;;;;;;9.86;100.00;102177.59;4976796;28;20027;-89
2023/06/01 04:08:26;;;;;;;15.70;7.70;;;;;;;9.96;100.00;102190.50;4980227;28;20058;-89
2023/06/01 04:10:52;;;;;;;15.68;8.00;;;;;;;9.95;100.00;102192.34;4969127;28;20045;-88
2023/06/01 04:13:17;;;;;;;13.77;7.40;;;;;;;10.02;100.00;102189.63;4974877;28;20121;-89
2023/06/01 04:15:43;;;;;;;17.13;7.40;;;;;;;10.17;100.00;102201.84;4973134;28;20034;-90
2023/06/01 04:18:08;;;;;;;14.37;7.97;;;;;;;10.09;100.00;102193.03;4973695;28;20465;-90
2023/06/01 04:20:34;;;;;;;15.93;7.87;;;;;;;10.11;100.00;102182.13;4954623;28;20154;-90
2023/06/01 04:23:00;;;;;;;12.60;6.85;;;;;;;10.15;100.00;102185.97;4953172;28;20475;-93
2023/06/01 04:25:25;;;;;;;14.18;7.45;;;;;;;10.33;100.00;102185.19;4973485;28;20054;-92
2023/06/01 04:27:54;;;;;;;12.47;6.73;;;;;;;10.37;100.00;102182.88;4971746;28;20449;-93
2023/06/01 04:30:20;;;;;;;14.52;7.40;;;;;;;10.52;100.00;102193.25;4956968;28;20030;-92
2023/06/01 04:32:47;;;;;;;13.13;7.10;;;;;;;10.56;100.00;102194.47;4974570;28;20037;-92
2023/06/01 04:35:13;;;;;;;10.60;6.80;;;;;;;10.56;100.00;102184.53;4973554;28;20082;-92
2023/06/01 04:37:40;;;;;;;12.35;7.28;;;;;;;10.71;100.00;102194.88;4974171;28;20039;-92
2023/06/01 04:40:09;;;;;;;12.07;7.45;;;;;;;10.75;100.00;102198.75;4974525;28;20517;-91
2023/06/01 04:42:36;;;;;;;14.80;8.23;;;;;;;10.68;100.00;102197.19;4976524;28;20031;-91
2023/06/01 04:45:06;;;;;;;17.10;7.70;;;;;;;10.50;100.00;102200.69;4975579;28;20485;-93
2023/06/01 04:47:31;;;;;;;13.00;8.23;;;;;;;10.53;100.00;102205.63;4973239;28;20337;-91
2023/06/01 04:49:57;;;;;;;17.73;8.52;;;;;;;10.48;100.00;102203.63;4974960;28;20034;-93
2023/06/01 04:52:23;;;;;;;21.45;8.82;;;;;;;10.65;100.00;102193.09;4975865;28;20085;-93
2023/06/01 04:54:49;;;;;;;16.10;8.80;;;;;;;10.68;100.00;102194.53;4979236;28;20023;-94
2023/06/01 04:57:14;;;;;;;15.30;8.57;;;;;;;10.87;100.00;102208.72;4978686;28;20157;-93
2023/06/01 04:59:42;;;;;;;14.70;7.87;;;;;;;11.11;100.00;102211.50;4970279;28;20672;-95
2023/06/01 05:02:08;;;;;;;12.75;7.82;;;;;;;11.21;100.00;102207.22;4976563;28;20031;-94
2023/06/01 05:04:34;;;;;;;16.30;8.77;;;;;;;11.36;100.00;102204.09;4976063;28;20635;-93
2023/06/01 05:06:59;;;;;;;14.30;7.85;;;;;;;11.65;100.00;102204.31;4977462;28;20462;-94
2023/06/01 05:09:25;;;;;;;14.60;7.70;;;;;;;11.93;100.00;102204.69;4978720;28;20023;-94
2023/06/01 05:11:50;;;;;;;17.35;8.60;;;;;;;12.13;100.00;102196.28;4963683;28;20055;-95
2023/06/01 05:14:15;;;;;;;15.00;7.87;;;;;;;12.48;97.42;102195.41;4961009;29;20034;-94
2023/06/01 05:16:41;;;;;;;14.13;8.20;;;;;;;12.75;96.45;102197.59;4964029;28;20030;-94
2023/06/01 05:19:06;;;;;;;14.50;8.50;;;;;;;13.58;92.21;102205.28;4975897;28;20039;-93
2023/06/01 05:21:31;;;;;;;15.10;8.10;;;;;;;14.51;87.18;102205.78;4970995;28;20097;-92
2023/06/01 05:23:57;;;;;;;12.45;7.90;;;;;;;15.53;81.36;102201.72;4975198;28;20490;-94
2023/06/01 05:26:22;;;;;;;12.50;8.10;;;;;;;16.40;75.05;102206.91;4975294;28;20031;-93
2023/06/01 05:28:48;;;;;;;14.23;7.77;;;;;;;17.02;70.39;102201.72;4976698;28;20035;-94
2023/06/01 05:31:13;;;;;;;10.83;7.10;;;;;;;17.31;66.55;102205.81;4977589;28;20034;-94
2023/06/01 05:33:38;;;;;;;11.52;7.20;;;;;;;16.83;68.62;102200.56;4957136;28;20039;-90
2023/06/01 05:36:04;;;;;;;11.97;7.00;;;;;;;16.31;70.06;102208.47;4972797;28;20038;-90
2023/06/01 05:38:30;;;;;;;12.27;7.00;;;;;;;15.36;72.89;102201.84;4973981;28;20371;-91
2023/06/01 05:40:55;;;;;;;12.05;7.18;;;;;;;14.45;77.21;102206.78;4963310;28;20082;-92
2023/06/01 05:43:20;;;;;;;13.37;7.77;;;;;;;13.60;81.41;102208.53;4975189;28;20034;-92
2023/06/01 05:45:46;;;;;;;13.13;6.60;;;;;;;13.29;85.41;102196.41;4976587;28;20023;-93
2023/06/01 05:48:13;;;;;;;18.03;7.23;;;;;;;13.57;84.64;102198.28;4976155;28;20110;-92
2023/06/01 05:50:40;;;;;;;16.38;7.80;;;;;;;13.78;84.31;102204.00;4964308;28;20027;-92
2023/06/01 05:53:06;;;;;;;15.68;7.55;;;;;;;13.87;84.11;102202.50;4977112;28;20030;-93
2023/06/01 05:55:33;;;;;;;12.75;7.38;;;;;;;14.28;82.17;102198.75;4976218;28;20023;-92
2023/06/01 05:57:59;;;;;;;14.63;7.43;;;;;;;14.22;81.38;102204.06;4964492;28;20035;-92
2023/06/01 06:00:25;;;;;;;11.53;7.33;;;;;;;13.74;82.63;102211.72;4956477;28;20015;-91
2023/06/01 06:02:51;;;;;;;11.95;7.60;;;;;;;13.47;85.74;102211.56;4957199;29;20506;-92
2023/06/01 06:05:16;;;;;;;12.80;7.57;;;;;;;13.39;85.96;102206.56;4957207;29;20023;-92
2023/06/01 06:07:41;;;;;;;16.07;7.40;;;;;;;13.47;87.50;102195.41;4971338;28;20037;-96
2023/06/01 06:10:07;;;;;;;14.23;7.93;;;;;;;14.03;85.30;102208.94;4984161;28;20092;-95
2023/06/01 06:12:33;;;;;;;16.95;7.50;;;;;;;14.03;83.85;102202.72;4973170;28;20033;-93
2023/06/01 06:14:58;;;;;;;12.73;7.43;;;;;;;13.80;84.20;102198.34;4979369;28;20046;-91
2023/06/01 06:17:23;;;;;;;15.77;7.87;;;;;;;13.48;85.79;102208.63;4978949;28;20329;-92
2023/06/01 06:19:49;;;;;;;13.77;6.77;;;;;;;13.24;86.40;102221.34;4990008;28;20035;-91
2023/06/01 06:22:15;;;;;;;13.93;7.40;;;;;;;13.02;88.44;102210.47;4981959;28;20023;-92
2023/06/01 06:24:41;;;;;;;16.52;7.97;;;;;;;12.98;89.14;102212.81;4999382;28;20006;-92
2023/06/01 06:27:08;;;;;;;13.65;7.95;;;;;;;13.01;88.50;102216.91;4998209;28;20034;-94
2023/06/01 06:29:33;;;;;;;15.27;7.72;;;;;;;12.77;87.94;102219.69;4998859;28;20026;-91
2023/06/01 06:31:59;;;;;;;16.57;8.03;;;;;;;12.46;90.19;102221.72;4992956;28;20031;-92
2023/06/01 06:34:24;;;;;;;26.63;9.65;;;;;;;12.14;91.56;102216.75;4994041;28;20057;-91
2023/06/01 06:36:52;;;;;;;13.97;7.57;;;;;;;11.99;92.97;102214.50;4980694;28;20061;-91
2023/06/01 06:39:18;;;;;;;13.70;8.02;;;;;;;12.02;96.02;102214.03;4974814;28;20022;-92
2023/06/01 06:41:44;;;;;;;15.27;7.40;;;;;;;12.06;94.30;102190.22;4991371;23;20043;-94
2023/06/01 06:44:13;;;;;;;14.43;7.00;;;;;;;12.32;93.74;102182.72;4997758;28;20022;-92
2023/06/01 06:46:39;;;;;;;14.93;7.45;;;;;;;12.62;91.21;102197.84;4988953;28;20105;-91
2023/06/01 06:50:01;;;;;;;;;;;;;;;;;;;;;
2023/06/01 06:51:57;;;;;;;18.75;7.65;;;;;;;12.83;90.50;102199.88;4972994;28;20039;-94
2023/06/01 06:54:38;;;;;;;16.80;7.63;;;;;;;13.05;90.92;102209.97;4996164;28;20034;-94
2023/06/01 06:57:07;;;;;;;16.70;7.95;;;;;;;13.22;89.19;102210.03;4998801;28;20027;-93
2023/06/01 06:59:39;;;;;;;17.38;7.30;;;;;;;13.25;87.16;102200.66;4977904;28;20118;-92
2023/06/01 07:02:04;;;;;;;13.98;7.40;;;;;;;13.41;87.33;102212.53;4990356;23;20036;-94
2023/06/01 07:04:30;;;;;;;11.87;6.90;;;;;;;13.48;87.61;102192.47;4957690;29;20495;-93
2023/06/01 07:07:00;;;;;;;13.07;7.03;;;;;;;13.83;87.69;102201.34;4968818;29;20411;-93
2023/06/01 07:09:34;;;;;;;11.40;5.90;;;;;;;14.04;83.95;102202.50;4967236;29;20305;-93
2023/06/01 07:12:09;;;;;;;15.77;7.15;;;;;;;14.19;83.52;102199.19;4971425;28;20023;-94
2023/06/01 07:14:38;;;;;;;13.35;7.00;;;;;;;14.73;82.13;102202.31;4953725;29;20047;-92
2023/06/01 07:19:38;;;;;;;15.70;7.35;;;;;;;14.98;76.05;102199.88;5332284;23;20358;-93
2023/06/01 07:22:13;;;;;;;14.03;7.23;;;;;;;15.02;77.88;102202.06;5011210;28;20062;-91
2023/06/01 07:24:39;;;;;;;18.20;7.60;;;;;;;14.94;77.00;102216.84;5007478;28;20173;-89
2023/06/01 07:27:05;;;;;;;15.50;6.60;;;;;;;14.61;78.03;102218.59;4979488;28;20038;-90
2023/06/01 07:29:30;;;;;;;13.93;6.85;;;;;;;14.31;80.23;102217.94;4991848;28;20095;-91
2023/06/01 07:31:56;;;;;;;10.93;7.20;;;;;;;14.26;83.18;102225.94;4994567;28;20034;-94
2023/06/01 07:34:21;;;;;;;13.30;7.32;;;;;;;14.28;81.05;102214.94;4997854;28;20038;-96
2023/06/01 07:39:23;;;;;;;16.47;7.73;;;;;;;14.54;80.61;102222.28;5302424;23;20028;-96
2023/06/01 07:41:53;;;;;;;12.53;7.20;;;;;;;14.56;78.80;102208.56;5081253;23;20272;-96
2023/06/01 07:44:22;;;;;;;13.60;7.25;;;;;;;14.37;79.56;102197.25;4995313;28;20114;-96
2023/06/01 08:48:58;;;;;;;14.32;8.55;;;;;;;16.56;68.97;102202.38;4906626;23;20506;-88
2023/06/01 08:51:24;;;;;;;13.00;7.75;;;;;;;16.59;69.18;102196.44;4993281;28;20030;-89
2023/06/01 08:53:51;;;;;;;19.45;8.65;;;;;;;16.73;66.13;102188.63;4992070;28;20089;-86
2023/06/01 08:56:17;;;;;;;16.93;8.60;;;;;;;16.76;66.09;102193.50;4990913;28;20045;-86
2023/06/01 08:58:48;;;;;;;15.77;8.30;;;;;;;16.87;67.38;102198.94;4990598;28;20336;-83
2023/06/01 09:01:21;;;;;;;16.98;8.27;;;;;;;16.88;65.75;102189.75;4972336;28;20094;-88
2023/06/01 09:03:48;;;;;;;15.02;8.40;;;;;;;16.87;65.73;102178.13;4986047;28;20065;-87
2023/06/01 09:06:14;;;;;;;16.80;7.63;;;;;;;17.07;64.90;102188.19;4985200;28;20433;-87
2023/06/01 09:08:39;;;;;;;14.97;8.10;;;;;;;17.43;64.89;102190.13;4991263;28;20022;-87
2023/06/01 09:11:05;;;;;;;14.45;8.73;;;;;;;17.37;62.71;102196.63;4990406;28;20033;-86
2023/06/01 09:13:40;;;;;;;13.97;8.30;;;;;;;17.54;64.78;102190.91;4988235;28;20022;-86
2023/06/01 09:16:06;;;;;;;13.38;8.25;;;;;;;17.69;63.92;102192.78;4975152;28;20471;-87
2023/06/01 09:18:32;;;;;;;13.38;8.30;;;;;;;17.72;61.78;102178.69;4975096;28;20030;-87
2023/06/01 09:21:15;;;;;;;16.23;8.77;;;;;;;18.05;64.08;102176.50;4990855;28;20635;-87
2023/06/01 09:23:42;;;;;;;14.40;9.17;;;;;;;18.05;60.03;102181.91;4975311;28;20062;-88
2023/06/01 09:26:09;;;;;;;17.53;9.30;;;;;;;18.07;60.99;102182.44;4974494;28;20325;-87
2023/06/01 09:28:58;;;;;;;16.20;8.70;;;;;;;17.92;60.26;102179.75;4984015;28;20026;-87
2023/06/01 09:31:46;;;;;;;16.60;8.95;;;;;;;17.85;62.53;102174.63;4991736;28;20482;-85
2023/06/01 09:34:19;;;;;;;14.82;8.18;;;;;;;17.97;59.89;102169.69;4982833;28;20498;-86
2023/06/01 09:36:46;;;;;;;21.88;8.43;;;;;;;18.10;60.66;102160.22;4975114;28;20030;-86
2023/06/01 09:39:14;;;;;;;16.77;8.77;;;;;;;18.23;59.42;102157.97;4987206;28;20026;-87
2023/06/01 09:41:54;;;;;;;16.42;8.68;;;;;;;18.56;60.67;102161.09;4979598;28;20386;-87
2023/06/01 09:44:24;;;;;;;15.80;9.15;;;;;;;18.45;57.69;102154.88;4993485;28;20062;-86
2023/06/01 09:46:52;;;;;;;15.32;9.13;;;;;;;18.14;56.89;102155.03;4993742;28;20538;-85
2023/06/01 09:49:21;;;;;;;15.57;8.20;;;;;;;18.24;60.24;102154.19;4998008;28;20500;-86
2023/06/01 09:51:47;;;;;;;19.63;8.70;;;;;;;18.34;58.07;102156.03;4992188;28;20301;-86
2023/06/01 09:54:22;;;;;;;17.52;8.40;;;;;;;18.63;59.58;102156.16;4993867;28;20045;-91
2023/06/01 09:56:47;;;;;;;20.95;9.23;;;;;;;18.72;57.58;102154.47;4994234;28;20073;-92
2023/06/01 09:59:14;;;;;;;13.50;8.30;;;;;;;18.79;57.62;102147.94;4994994;28;20165;-92
2023/06/01 10:01:40;;;;;;;19.38;8.82;;;;;;;18.98;56.21;102162.50;4996976;28;20026;-84
2023/06/01 10:04:07;;;;;;;16.83;9.10;;;;;;;18.65;56.12;102147.72;5002289;28;20106;-87
2023/06/01 10:06:35;;;;;;;16.08;9.60;;;;;;;18.40;57.06;102142.16;5002542;28;20034;-88
2023/06/01 10:09:01;;;;;;;19.10;9.82;;;;;;;18.52;58.93;102147.25;5001938;28;20050;-86
2023/06/01 10:11:28;;;;;;;16.10;8.90;;;;;;;18.76;58.06;102143.88;4996224;28;20114;-85
2023/06/01 10:13:56;;;;;;;17.43;8.53;;;;;;;18.96;57.65;102144.88;4999830;28;20035;-85
2023/06/01 10:16:21;;;;;;;14.20;9.10;;;;;;;19.11;55.98;102149.34;4993863;28;20285;-84
2023/06/01 10:18:48;;;;;;;19.00;8.93;;;;;;;19.21;57.37;102141.94;4993730;28;20040;-84
2023/06/01 10:21:13;;;;;;;17.83;9.50;;;;;;;19.51;56.38;102140.06;4990938;28;20474;-87
2023/06/01 10:23:40;;;;;;;19.93;9.93;;;;;;;19.70;54.67;102149.38;4993148;28;20301;-86
2023/06/01 10:26:12;;;;;;;15.18;9.43;;;;;;;19.59;53.65;102138.63;4989304;28;20033;-89
2023/06/01 10:28:39;;;;;;;16.92;9.02;;;;;;;19.74;54.25;102148.50;4990599;28;20486;-89
2023/06/01 10:31:40;;;;;;;19.88;10.18;;;;;;;19.55;54.74;102136.72;4991323;28;20029;-89
2023/06/01 10:34:08;;;;;;;13.77;8.97;;;;;;;19.83;54.70;102135.91;4974176;28;20046;-89
2023/06/01 10:36:52;;;;;;;17.33;9.47;;;;;;;19.79;53.95;102132.13;4973519;28;20333;-89
2023/06/01 10:39:27;;;;;;;19.45;9.52;;;;;;;19.92;53.53;102125.22;4973877;28;20062;-89
2023/06/01 10:41:54;;;;;;;19.23;9.48;;;;;;;20.10;52.97;102128.28;4989707;28;20061;-90
2023/06/01 10:44:38;;;;;;;14.30;9.20;;;;;;;20.57;53.39;102129.28;4992915;28;20030;-89
2023/06/01 10:47:04;;;;;;;19.42;10.02;;;;;;;20.64;50.91;102133.56;4992748;28;20465;-90
2023/06/01 10:50:01;;;;;;;18.55;9.68;;;;;;;20.65;51.01;102135.97;4992328;28;20077;-89
2023/06/01 10:52:38;;;;;;;21.75;9.50;;;;;;;20.35;50.37;102140.75;4990835;28;20053;-90
2023/06/01 10:55:06;;;;;;;15.93;9.88;;;;;;;20.28;52.65;102127.50;4992892;28;20053;-89
2023/06/01 10:57:35;;;;;;;16.95;10.20;;;;;;;20.43;51.79;102131.94;4993378;28;20037;-89
2023/06/01 11:00:24;;;;;;;18.43;9.77;;;;;;;20.65;51.48;102130.53;4992380;28;20110;-89
2023/06/01 11:02:59;;;;;;;16.50;10.33;;;;;;;20.53;52.00;102136.44;4993102;28;20701;-90
2023/06/01 11:05:50;;;;;;;17.75;10.15;;;;;;;20.33;53.48;102128.53;4992254;28;20385;-90
2023/06/01 11:08:21;;;;;;;15.55;9.95;;;;;;;20.53;53.54;102122.00;4973593;28;20031;-89
2023/06/01 11:10:53;;;;;;;16.98;9.90;;;;;;;20.77;51.86;102118.41;4989051;28;20106;-90
2023/06/01 11:13:24;;;;;;;18.35;10.45;;;;;;;20.65;51.13;102116.91;4992615;28;20030;-90
2023/06/01 11:16:24;;;;;;;15.20;9.85;;;;;;;20.73;51.72;102113.53;4974840;28;20029;-90
2023/06/01 11:18:58;;;;;;;21.67;10.68;;;;;;;20.79;48.89;102099.88;4959881;28;20054;-90
2023/06/01 11:21:27;;;;;;;16.15;9.27;;;;;;;21.01;50.31;102105.47;4986325;28;20068;-88
2023/06/01 11:23:54;;;;;;;15.02;8.80;;;;;;;21.17;48.19;102110.69;4992569;28;20565;-89
2023/06/01 11:26:24;;;;;;;17.63;10.07;;;;;;;21.21;47.78;102106.22;4984214;28;20027;-89
2023/06/01 11:28:51;;;;;;;16.57;10.00;;;;;;;21.36;49.47;102115.28;4979965;28;20611;-90
2023/06/01 11:31:18;;;;;;;15.68;9.57;;;;;;;21.35;48.20;102109.00;4992674;28;20057;-89
2023/06/01 11:33:56;;;;;;;15.98;9.32;;;;;;;21.42;48.14;102097.69;4992862;28;20052;-90
2023/06/01 11:36:26;;;;;;;15.90;9.05;;;;;;;21.56;47.84;102103.97;4991529;28;20113;-90
2023/06/01 11:38:53;;;;;;;17.20;9.20;;;;;;;21.65;47.71;102106.03;4991306;28;20018;-89
2023/06/01 11:41:24;;;;;;;15.50;8.63;;;;;;;21.63;48.18;102104.41;4984486;28;20145;-89
2023/06/01 11:43:56;;;;;;;14.30;8.60;;;;;;;21.72;47.16;102109.19;4984246;28;20030;-90
2023/06/01 11:46:23;;;;;;;18.85;9.30;;;;;;;21.79;46.64;102101.38;4991403;28;20033;-88
2023/06/01 11:49:06;;;;;;;14.57;8.43;;;;;;;21.84;47.51;102100.47;4991894;28;20031;-90
2023/06/01 11:51:38;;;;;;;20.73;9.73;;;;;;;21.77;46.92;102109.06;4991236;28;20026;-89
2023/06/01 11:54:05;;;;;;;15.37;9.13;;;;;;;21.90;46.02;102091.91;4992260;28;20277;-88
2023/06/01 11:56:32;;;;;;;16.55;9.30;;;;;;;21.86;47.82;102099.06;4973799;28;20030;-89
2023/06/01 11:58:59;;;;;;;14.98;8.82;;;;;;;22.06;46.75;102092.34;4989820;28;20034;-90
2023/06/01 12:01:25;;;;;;;13.63;8.77;;;;;;;21.74;45.42;102085.09;4989422;28;20034;-89
2023/06/01 12:03:50;;;;;;;13.85;8.27;;;;;;;21.90;48.36;102089.16;4974727;28;20084;-90
2023/06/01 12:06:23;;;;;;;13.23;8.50;;;;;;;22.20;47.82;102088.78;4970537;28;20383;-90
2023/06/01 12:08:52;;;;;;;20.92;8.70;;;;;;;22.31;46.94;102079.28;4990017;28;20034;-90
2023/06/01 12:11:26;;;;;;;14.43;8.63;;;;;;;22.19;45.47;102082.53;4991631;28;20035;-89
2023/06/01 12:13:52;;;;;;;12.37;8.63;;;;;;;21.85;46.17;102077.53;4992016;28;20034;-88
2023/06/01 12:16:17;;;;;;;16.10;8.80;;;;;;;21.84;48.03;102087.66;4991647;28;20669;-89
2023/06/01 12:18:43;;;;;;;16.48;9.55;;;;;;;21.89;46.08;102078.53;4991719;28;20030;-88
2023/06/01 12:21:10;;;;;;;18.27;8.83;;;;;;;21.98;44.48;102086.81;4991962;28;20040;-88
2023/06/01 12:23:35;;;;;;;15.38;7.90;;;;;;;22.18;44.33;102093.78;4991213;28;20161;-90
2023/06/01 12:26:00;;;;;;;14.37;8.00;;;;;;;22.08;46.20;102081.94;4974741;28;20055;-88
2023/06/01 12:28:29;;;;;;;13.97;8.70;;;;;;;22.38;45.68;102074.19;4972213;28;20039;-91
2023/06/01 12:31:15;;;;;;;16.75;8.13;;;;;;;22.58;45.74;102069.38;4972153;28;20102;-91
2023/06/01 12:33:42;;;;;;;14.98;8.30;;;;;;;22.82;44.82;102069.06;4989326;28;20045;-90
2023/06/01 12:36:08;;;;;;;13.98;7.53;;;;;;;22.87;44.87;102070.06;4990645;28;20038;-91
2023/06/01 12:38:52;;;;;;;12.32;7.90;;;;;;;23.05;44.47;102069.03;4991303;28;20026;-93
2023/06/01 12:41:18;;;;;;;13.43;7.60;;;;;;;22.66;43.66;102067.84;4980386;28;20062;-88
2023/06/01 12:43:50;;;;;;;12.32;7.53;;;;;;;22.54;43.33;102068.41;4972931;28;20494;-95
2023/06/01 12:46:35;;;;;;;11.10;6.85;;;;;;;22.58;44.13;102063.94;4977541;28;20034;-95
2023/06/01 12:49:13;;;;;;;12.68;7.40;;;;;;;22.74;43.33;102061.63;4987835;28;20022;-92
2023/06/01 12:51:39;;;;;;;9.43;6.87;;;;;;;22.68;41.87;102057.41;4977286;28;20454;-94
2023/06/01 12:54:08;;;;;;;16.53;7.50;;;;;;;22.60;42.33;102056.22;4995938;28;20278;-96
2023/06/01 12:56:33;;;;;;;10.60;6.77;;;;;;;22.82;43.64;102060.88;5002438;28;20110;-96
2023/06/01 12:58:59;;;;;;;12.83;6.40;;;;;;;22.90;44.42;102059.34;4983614;28;20316;-95
2023/06/01 13:01:24;;;;;;;14.70;7.73;;;;;;;22.76;42.27;102070.34;5003136;28;20482;-95
2023/06/01 13:03:52;;;;;;;8.60;6.80;;;;;;;22.80;43.50;102065.03;5007783;28;20038;-96
2023/06/01 13:06:19;;;;;;;11.90;7.10;;;;;;;22.96;42.87;102054.53;5017778;28;20057;-95
2023/06/01 13:08:44;;;;;;;11.25;7.18;;;;;;;23.04;42.78;102051.03;5013477;28;20018;-96
2023/06/01 13:11:09;;;;;;;11.13;6.40;;;;;;;23.34;43.05;102062.31;5004282;28;20053;-95